createdAt,value
2017-10-15T00:00:50.209Z,0
2017-10-15T00:01:51.599Z,0
2017-10-15T00:02:52.988Z,0
2017-10-15T00:03:54.382Z,0
2017-10-15T00:04:55.775Z,0
2017-10-15T00:05:57.162Z,0
2017-10-15T00:06:58.551Z,0
2017-10-15T00:07:59.942Z,0
2017-10-15T00:09:01.330Z,0
2017-10-15T00:10:02.722Z,0
2017-10-15T00:11:04.110Z,0
2017-10-15T00:12:05.503Z,0
2017-10-15T00:13:06.890Z,0
2017-10-15T00:14:08.280Z,0
2017-10-15T00:15:09.668Z,0
2017-10-15T00:16:11.060Z,0
2017-10-15T00:17:12.453Z,0
2017-10-15T00:18:13.845Z,0
2017-10-15T00:19:15.235Z,0
2017-10-15T00:20:16.625Z,0
2017-10-15T00:21:18.016Z,0
2017-10-15T00:22:19.406Z,0
2017-10-15T00:23:20.797Z,0
2017-10-15T00:24:22.188Z,0
2017-10-15T00:25:23.581Z,0
2017-10-15T00:26:24.971Z,0
2017-10-15T00:27:26.362Z,0
2017-10-15T00:28:27.752Z,0
2017-10-15T00:29:29.139Z,0
2017-10-15T00:30:30.531Z,0
2017-10-15T00:31:31.917Z,0
2017-10-15T00:32:33.311Z,0
2017-10-15T00:33:34.701Z,0
2017-10-15T00:34:36.089Z,0
2017-10-15T00:35:37.480Z,0
2017-10-15T00:36:38.869Z,0
2017-10-15T00:37:40.259Z,0
2017-10-15T00:38:41.651Z,0
2017-10-15T00:39:43.044Z,0
2017-10-15T00:40:44.435Z,0
2017-10-15T00:41:45.835Z,0
2017-10-15T00:42:47.210Z,0
2017-10-15T00:43:48.601Z,0
2017-10-15T00:44:49.993Z,0
2017-10-15T00:45:51.386Z,0
2017-10-15T00:46:52.776Z,0
2017-10-15T00:47:54.168Z,0
2017-10-15T00:48:55.557Z,0
2017-10-15T00:49:56.949Z,0
2017-10-15T00:50:58.340Z,0
2017-10-15T00:51:59.729Z,0
2017-10-15T00:53:01.119Z,0
2017-10-15T00:54:02.509Z,0
2017-10-15T00:55:03.899Z,0
2017-10-15T00:56:05.290Z,0
2017-10-15T00:57:06.677Z,0
2017-10-15T00:58:08.068Z,0
2017-10-15T00:59:09.458Z,0
2017-10-15T01:00:10.851Z,0
2017-10-15T01:01:12.244Z,0
2017-10-15T01:02:13.633Z,0
2017-10-15T01:03:15.023Z,0
2017-10-15T01:04:16.426Z,0
2017-10-15T01:05:17.799Z,0
2017-10-15T01:06:19.191Z,0
2017-10-15T01:07:20.578Z,0
2017-10-15T01:08:21.971Z,0
2017-10-15T01:09:23.360Z,0
2017-10-15T01:10:24.747Z,0
2017-10-15T01:11:26.138Z,0
2017-10-15T01:12:27.530Z,0
2017-10-15T01:13:28.922Z,0
2017-10-15T01:14:30.315Z,0
2017-10-15T01:15:31.709Z,0
2017-10-15T01:16:33.099Z,0
2017-10-15T01:17:34.488Z,0
2017-10-15T01:18:35.875Z,0
2017-10-15T01:19:37.264Z,0
2017-10-15T01:20:38.656Z,0
2017-10-15T01:21:40.046Z,0
2017-10-15T01:22:41.435Z,0
2017-10-15T01:23:42.828Z,0
2017-10-15T01:24:44.215Z,0
2017-10-15T01:25:45.603Z,0
2017-10-15T01:26:46.995Z,0
2017-10-15T01:27:48.384Z,0
2017-10-15T01:28:49.777Z,0
2017-10-15T01:29:51.183Z,0
2017-10-15T01:30:52.556Z,0
2017-10-15T01:31:53.947Z,0
2017-10-15T01:32:55.335Z,0
2017-10-15T01:33:56.727Z,0
2017-10-15T01:34:58.125Z,0
2017-10-15T01:35:59.507Z,0
2017-10-15T01:37:00.898Z,0
2017-10-15T01:38:02.290Z,0
2017-10-15T01:39:03.678Z,0
2017-10-15T01:40:05.066Z,0
2017-10-15T01:41:06.454Z,0
2017-10-15T01:42:07.845Z,0
2017-10-15T01:43:09.238Z,0
2017-10-15T01:44:10.629Z,0
2017-10-15T01:45:12.018Z,0
2017-10-15T01:46:13.409Z,0
2017-10-15T01:47:14.801Z,0
2017-10-15T01:48:16.187Z,0
2017-10-15T01:49:17.578Z,0
2017-10-15T01:50:18.969Z,0
2017-10-15T01:51:20.360Z,0
2017-10-15T01:52:21.756Z,0
2017-10-15T01:53:23.144Z,0
2017-10-15T01:54:24.532Z,0
2017-10-15T01:55:25.920Z,0
2017-10-15T01:56:27.312Z,0
2017-10-15T01:57:28.705Z,0
2017-10-15T01:58:30.099Z,0
2017-10-15T01:59:31.486Z,0
2017-10-15T02:00:32.874Z,0
2017-10-15T02:01:34.266Z,0
2017-10-15T02:02:35.653Z,0
2017-10-15T02:03:37.042Z,0
2017-10-15T02:04:38.432Z,0
2017-10-15T02:05:39.825Z,0
2017-10-15T02:06:41.219Z,0
2017-10-15T02:07:42.609Z,0
2017-10-15T02:08:43.994Z,0
2017-10-15T02:09:45.384Z,0
2017-10-15T02:10:46.775Z,0
2017-10-15T02:11:48.166Z,0
2017-10-15T02:12:49.559Z,0
2017-10-15T02:13:50.951Z,0
2017-10-15T02:14:52.340Z,0
2017-10-15T02:15:53.731Z,0
2017-10-15T02:16:55.120Z,0
2017-10-15T02:17:56.512Z,0
2017-10-15T02:18:57.903Z,0
2017-10-15T02:19:59.293Z,0
2017-10-15T02:21:00.688Z,0
2017-10-15T02:22:02.076Z,0
2017-10-15T02:23:03.462Z,0
2017-10-15T02:24:04.853Z,0
2017-10-15T02:25:06.244Z,0
2017-10-15T02:26:07.635Z,0
2017-10-15T02:27:09.024Z,0
2017-10-15T02:28:10.414Z,0
2017-10-15T02:29:11.802Z,0
2017-10-15T02:30:13.193Z,0
2017-10-15T02:31:14.583Z,0
2017-10-15T02:32:15.974Z,0
2017-10-15T02:33:17.361Z,0
2017-10-15T02:34:18.752Z,0
2017-10-15T02:35:20.146Z,0
2017-10-15T02:36:21.534Z,0
2017-10-15T02:37:22.922Z,0
2017-10-15T02:38:24.309Z,0
2017-10-15T02:39:25.701Z,0
2017-10-15T02:40:27.093Z,0
2017-10-15T02:41:28.486Z,0
2017-10-15T02:42:29.883Z,0
2017-10-15T02:43:31.265Z,0
2017-10-15T02:44:32.660Z,0
2017-10-15T02:45:34.043Z,0
2017-10-15T02:46:35.440Z,0
2017-10-15T02:47:36.825Z,0
2017-10-15T02:48:38.218Z,0
2017-10-15T02:49:39.611Z,0
2017-10-15T02:50:40.994Z,0
2017-10-15T02:51:42.385Z,0
2017-10-15T02:52:43.775Z,0
2017-10-15T02:53:45.163Z,0
2017-10-15T02:54:46.554Z,0
2017-10-15T02:55:47.945Z,0
2017-10-15T02:56:49.344Z,0
2017-10-15T02:57:50.730Z,0
2017-10-15T02:58:52.116Z,0
2017-10-15T02:59:53.505Z,0
2017-10-15T03:00:54.895Z,0
2017-10-15T03:01:56.289Z,0
2017-10-15T03:02:57.679Z,0
2017-10-15T03:03:59.117Z,0
2017-10-15T03:05:00.513Z,0
2017-10-15T03:06:01.896Z,0
2017-10-15T03:07:03.290Z,0
2017-10-15T03:08:04.676Z,0
2017-10-15T03:09:06.078Z,0
2017-10-15T03:10:07.459Z,0
2017-10-15T03:11:08.851Z,0
2017-10-15T03:12:10.238Z,0
2017-10-15T03:13:11.625Z,0
2017-10-15T03:14:13.015Z,0
2017-10-15T03:15:14.407Z,0
2017-10-15T03:16:15.794Z,0
2017-10-15T03:17:17.186Z,0
2017-10-15T03:18:18.579Z,0
2017-10-15T03:19:19.965Z,0
2017-10-15T03:20:21.357Z,0
2017-10-15T03:21:22.749Z,0
2017-10-15T03:22:24.143Z,0
2017-10-15T03:23:25.527Z,0
2017-10-15T03:24:26.922Z,0
2017-10-15T03:25:28.312Z,0
2017-10-15T03:26:29.703Z,0
2017-10-15T03:27:31.092Z,0
2017-10-15T03:28:32.480Z,0
2017-10-15T03:29:33.871Z,0
2017-10-15T03:30:35.263Z,0
2017-10-15T03:31:36.653Z,0
2017-10-15T03:32:38.046Z,0
2017-10-15T03:33:39.435Z,0
2017-10-15T03:34:40.823Z,0
2017-10-15T03:35:42.213Z,0
2017-10-15T03:36:43.605Z,0
2017-10-15T03:37:44.995Z,0
2017-10-15T03:38:46.389Z,0
2017-10-15T03:39:47.779Z,0
2017-10-15T03:40:49.167Z,0
2017-10-15T03:41:50.558Z,0
2017-10-15T03:42:51.946Z,0
2017-10-15T03:43:53.336Z,0
2017-10-15T03:44:54.726Z,0
2017-10-15T03:45:56.120Z,0
2017-10-15T03:46:57.522Z,0
2017-10-15T03:47:58.905Z,0
2017-10-15T03:49:00.292Z,0
2017-10-15T03:50:01.680Z,0
2017-10-15T03:51:03.071Z,0
2017-10-15T03:52:04.463Z,0
2017-10-15T03:53:05.853Z,0
2017-10-15T03:54:07.245Z,0
2017-10-15T03:55:08.633Z,0
2017-10-15T03:56:10.022Z,0
2017-10-15T03:57:11.412Z,0
2017-10-15T03:58:12.804Z,0
2017-10-15T03:59:14.194Z,0
2017-10-15T04:00:15.588Z,0
2017-10-15T04:01:16.977Z,0
2017-10-15T04:02:18.369Z,0
2017-10-15T04:03:19.756Z,0
2017-10-15T04:04:21.146Z,0
2017-10-15T04:05:22.537Z,0
2017-10-15T04:06:23.930Z,0
2017-10-15T04:07:25.319Z,0
2017-10-15T04:08:26.710Z,0
2017-10-15T04:09:28.098Z,0
2017-10-15T04:10:29.488Z,0
2017-10-15T04:11:30.876Z,0
2017-10-15T04:12:32.270Z,0
2017-10-15T04:13:33.657Z,0
2017-10-15T04:14:35.049Z,0
2017-10-15T04:15:36.441Z,0
2017-10-15T04:16:37.829Z,0
2017-10-15T04:17:39.218Z,0
2017-10-15T04:18:40.606Z,0
2017-10-15T04:19:41.997Z,0
2017-10-15T04:20:43.389Z,0
2017-10-15T04:21:44.780Z,0
2017-10-15T04:22:46.167Z,0
2017-10-15T04:23:47.557Z,0
2017-10-15T04:24:48.945Z,0
2017-10-15T04:25:50.337Z,0
2017-10-15T04:26:51.726Z,0
2017-10-15T04:27:53.116Z,0
2017-10-15T04:28:54.503Z,0
2017-10-15T04:29:55.895Z,0
2017-10-15T04:30:57.285Z,0
2017-10-15T04:31:58.672Z,0
2017-10-15T04:33:00.059Z,0
2017-10-15T04:34:01.450Z,0
2017-10-15T04:35:02.840Z,0
2017-10-15T04:36:04.230Z,0
2017-10-15T04:37:05.619Z,0
2017-10-15T04:38:07.008Z,0
2017-10-15T04:39:08.402Z,0
2017-10-15T04:40:09.787Z,0
2017-10-15T04:41:11.184Z,0
2017-10-15T04:42:12.567Z,0
2017-10-15T04:43:13.993Z,0
2017-10-15T04:44:15.384Z,0
2017-10-15T04:45:16.775Z,0
2017-10-15T04:46:18.160Z,0
2017-10-15T04:47:19.548Z,0
2017-10-15T04:48:20.940Z,0
2017-10-15T04:49:22.331Z,0
2017-10-15T04:50:23.724Z,0
2017-10-15T04:51:25.113Z,0
2017-10-15T04:52:26.502Z,0
2017-10-15T04:53:27.894Z,0
2017-10-15T04:54:29.282Z,0
2017-10-15T04:55:30.675Z,0
2017-10-15T04:56:32.063Z,0
2017-10-15T04:57:33.454Z,0
2017-10-15T04:58:34.847Z,0
2017-10-15T04:59:36.230Z,0
2017-10-15T05:00:37.618Z,0
2017-10-15T05:01:39.006Z,0
2017-10-15T05:02:40.393Z,0
2017-10-15T05:03:41.785Z,0
2017-10-15T05:04:43.177Z,0
2017-10-15T05:05:44.570Z,0
2017-10-15T05:06:45.956Z,0
2017-10-15T05:07:47.346Z,0
2017-10-15T05:08:48.735Z,0
2017-10-15T05:09:50.123Z,0
2017-10-15T05:10:51.515Z,0
2017-10-15T05:11:52.905Z,0
2017-10-15T05:12:54.296Z,0
2017-10-15T05:13:55.684Z,0
2017-10-15T05:14:57.094Z,0
2017-10-15T05:15:58.460Z,0
2017-10-15T05:16:59.851Z,0
2017-10-15T05:18:01.241Z,0
2017-10-15T05:19:02.633Z,0
2017-10-15T05:20:04.031Z,0
2017-10-15T05:21:05.415Z,0
2017-10-15T05:22:06.808Z,0
2017-10-15T05:23:08.194Z,0
2017-10-15T05:24:09.584Z,0
2017-10-15T05:25:10.975Z,0
2017-10-15T05:26:12.365Z,0
2017-10-15T05:27:13.756Z,0
2017-10-15T05:28:15.142Z,0
2017-10-15T05:29:16.535Z,0
2017-10-15T05:30:17.925Z,0
2017-10-15T05:31:19.316Z,0
2017-10-15T05:32:20.709Z,0
2017-10-15T05:33:22.095Z,0
2017-10-15T05:34:23.487Z,0
2017-10-15T05:35:24.873Z,0
2017-10-15T05:36:26.262Z,0
2017-10-15T05:37:27.651Z,0
2017-10-15T05:38:29.042Z,0
2017-10-15T05:39:30.431Z,0
2017-10-15T05:40:31.830Z,0
2017-10-15T05:41:33.213Z,0
2017-10-15T05:42:34.602Z,0
2017-10-15T05:43:35.990Z,0
2017-10-15T05:44:37.380Z,0
2017-10-15T05:45:38.771Z,0
2017-10-15T05:46:40.164Z,0
2017-10-15T05:47:41.555Z,0
2017-10-15T05:48:42.948Z,0
2017-10-15T05:49:44.338Z,0
2017-10-15T05:50:45.728Z,0
2017-10-15T05:51:47.119Z,0
2017-10-15T05:52:48.509Z,0
2017-10-15T05:53:49.899Z,0
2017-10-15T05:54:51.290Z,0
2017-10-15T05:55:52.684Z,0
2017-10-15T05:56:54.072Z,0
2017-10-15T05:57:55.462Z,0
2017-10-15T05:58:56.855Z,0
2017-10-15T05:59:58.247Z,0
2017-10-15T06:00:59.639Z,5
2017-10-15T06:02:01.034Z,5
2017-10-15T06:03:02.427Z,5
2017-10-15T06:04:03.819Z,5
2017-10-15T06:05:05.212Z,5
2017-10-15T06:06:06.600Z,5
2017-10-15T06:07:07.992Z,5
2017-10-15T06:08:09.388Z,5
2017-10-15T06:09:10.781Z,5
2017-10-15T06:10:12.173Z,5
2017-10-15T06:11:13.566Z,11
2017-10-15T06:12:14.956Z,11
2017-10-15T06:13:16.350Z,11
2017-10-15T06:14:17.740Z,11
2017-10-15T06:15:19.143Z,11
2017-10-15T06:16:20.526Z,11
2017-10-15T06:17:21.927Z,11
2017-10-15T06:18:23.314Z,11
2017-10-15T06:19:24.712Z,11
2017-10-15T06:20:26.103Z,11
2017-10-15T06:21:27.499Z,16
2017-10-15T06:22:28.940Z,16
2017-10-15T06:23:30.332Z,16
2017-10-15T06:24:31.724Z,16
2017-10-15T06:25:33.115Z,16
2017-10-15T06:26:34.507Z,16
2017-10-15T06:27:35.899Z,16
2017-10-15T06:28:37.292Z,16
2017-10-15T06:29:38.683Z,16
2017-10-15T06:30:40.088Z,16
2017-10-15T06:31:41.479Z,22
2017-10-15T06:32:42.870Z,22
2017-10-15T06:33:44.338Z,22
2017-10-15T06:34:45.729Z,22
2017-10-15T06:35:47.127Z,22
2017-10-15T06:36:48.523Z,22
2017-10-15T06:37:49.919Z,22
2017-10-15T06:38:51.313Z,22
2017-10-15T06:39:52.701Z,22
2017-10-15T06:40:54.099Z,22
2017-10-15T06:41:55.495Z,28
2017-10-15T06:42:56.887Z,28
2017-10-15T06:43:58.280Z,28
2017-10-15T06:44:59.675Z,28
2017-10-15T06:46:01.074Z,28
2017-10-15T06:47:02.461Z,28
2017-10-15T06:48:03.855Z,28
2017-10-15T06:49:05.246Z,28
2017-10-15T06:50:06.637Z,28
2017-10-15T06:51:08.035Z,28
2017-10-15T06:52:09.433Z,33
2017-10-15T06:53:10.823Z,33
2017-10-15T06:54:12.215Z,33
2017-10-15T06:55:13.609Z,33
2017-10-15T06:56:15.008Z,33
2017-10-15T06:57:16.401Z,33
2017-10-15T06:58:17.798Z,33
2017-10-15T06:59:19.189Z,33
2017-10-15T07:00:20.585Z,33
2017-10-15T07:01:21.982Z,33
2017-10-15T07:02:23.375Z,33
2017-10-15T07:03:24.765Z,33
2017-10-15T07:04:26.158Z,33
2017-10-15T07:05:27.553Z,33
2017-10-15T07:06:28.947Z,39
2017-10-15T07:07:30.341Z,39
2017-10-15T07:08:31.735Z,39
2017-10-15T07:09:33.122Z,39
2017-10-15T07:10:34.513Z,39
2017-10-15T07:11:35.911Z,39
2017-10-15T07:12:37.316Z,39
2017-10-15T07:13:38.716Z,39
2017-10-15T07:14:40.195Z,39
2017-10-15T07:15:41.586Z,39
2017-10-15T07:16:42.976Z,39
2017-10-15T07:17:44.369Z,39
2017-10-15T07:18:45.765Z,39
2017-10-15T07:19:47.163Z,39
2017-10-15T07:20:48.553Z,39
2017-10-15T07:21:49.949Z,45
2017-10-15T07:22:51.338Z,45
2017-10-15T07:23:52.732Z,45
2017-10-15T07:24:54.125Z,45
2017-10-15T07:25:55.523Z,45
2017-10-15T07:26:56.921Z,45
2017-10-15T07:27:58.313Z,45
2017-10-15T07:28:59.725Z,45
2017-10-15T07:30:01.100Z,45
2017-10-15T07:31:02.493Z,45
2017-10-15T07:32:03.883Z,45
2017-10-15T07:33:05.278Z,45
2017-10-15T07:34:06.673Z,45
2017-10-15T07:35:08.068Z,45
2017-10-15T07:36:09.463Z,45
2017-10-15T07:37:10.854Z,50
2017-10-15T07:38:12.244Z,50
2017-10-15T07:39:13.640Z,50
2017-10-15T07:40:15.036Z,50
2017-10-15T07:41:16.431Z,50
2017-10-15T07:42:17.828Z,50
2017-10-15T07:43:19.223Z,50
2017-10-15T07:44:20.613Z,50
2017-10-15T07:45:22.007Z,50
2017-10-15T07:46:23.402Z,50
2017-10-15T07:47:24.796Z,50
2017-10-15T07:48:26.191Z,50
2017-10-15T07:49:27.588Z,50
2017-10-15T07:50:28.984Z,50
2017-10-15T07:51:30.378Z,50
2017-10-15T07:52:31.769Z,56
2017-10-15T07:53:33.165Z,56
2017-10-15T07:54:34.559Z,56
2017-10-15T07:55:35.953Z,56
2017-10-15T07:56:37.348Z,56
2017-10-15T07:57:38.742Z,56
2017-10-15T07:58:40.135Z,56
2017-10-15T07:59:41.531Z,56
2017-10-15T08:00:42.930Z,56
2017-10-15T08:01:44.321Z,56
2017-10-15T08:02:45.717Z,56
2017-10-15T08:03:47.108Z,56
2017-10-15T08:04:48.506Z,56
2017-10-15T08:05:49.898Z,61
2017-10-15T08:06:51.296Z,61
2017-10-15T08:07:52.688Z,61
2017-10-15T08:08:54.084Z,61
2017-10-15T08:09:55.479Z,61
2017-10-15T08:10:56.875Z,61
2017-10-15T08:11:58.271Z,61
2017-10-15T08:12:59.663Z,61
2017-10-15T08:14:01.063Z,61
2017-10-15T08:15:02.457Z,61
2017-10-15T08:16:03.865Z,61
2017-10-15T08:17:05.251Z,61
2017-10-15T08:18:06.665Z,61
2017-10-15T08:19:08.064Z,61
2017-10-15T08:20:09.462Z,67
2017-10-15T08:21:10.856Z,67
2017-10-15T08:22:12.251Z,67
2017-10-15T08:23:13.650Z,67
2017-10-15T08:24:15.041Z,67
2017-10-15T08:25:16.446Z,73
2017-10-15T08:26:19.373Z,73
2017-10-15T08:27:20.764Z,73
2017-10-15T08:28:23.142Z,73
2017-10-15T08:29:24.539Z,73
2017-10-15T08:30:25.937Z,78
2017-10-15T08:31:27.337Z,78
2017-10-15T08:32:28.734Z,78
2017-10-15T08:33:30.130Z,84
2017-10-15T08:34:31.555Z,84
2017-10-15T08:35:32.952Z,84
2017-10-15T08:36:34.348Z,84
2017-10-15T08:37:35.741Z,84
2017-10-15T08:38:37.137Z,84
2017-10-15T08:39:38.540Z,90
2017-10-15T08:40:39.938Z,90
2017-10-15T08:41:41.330Z,95
2017-10-15T08:42:42.729Z,101
2017-10-15T08:43:44.125Z,101
2017-10-15T08:44:45.524Z,106
2017-10-15T08:45:46.920Z,106
2017-10-15T08:46:48.316Z,112
2017-10-15T08:47:49.716Z,118
2017-10-15T08:48:51.110Z,123
2017-10-15T08:49:52.506Z,129
2017-10-15T08:50:53.902Z,129
2017-10-15T08:51:55.299Z,135
2017-10-15T08:52:56.694Z,140
2017-10-15T08:53:58.093Z,146
2017-10-15T08:54:59.490Z,146
2017-10-15T08:56:00.885Z,146
2017-10-15T08:57:02.288Z,151
2017-10-15T08:58:03.679Z,151
2017-10-15T08:59:05.081Z,157
2017-10-15T09:00:06.480Z,157
2017-10-15T09:01:07.873Z,163
2017-10-15T09:02:09.278Z,163
2017-10-15T09:03:10.666Z,168
2017-10-15T09:04:12.063Z,168
2017-10-15T09:05:13.461Z,174
2017-10-15T09:06:14.861Z,174
2017-10-15T09:07:16.260Z,180
2017-10-15T09:08:17.658Z,180
2017-10-15T09:09:19.056Z,185
2017-10-15T09:10:20.456Z,185
2017-10-15T09:11:21.807Z,191
2017-10-15T09:12:23.205Z,196
2017-10-15T09:13:24.602Z,196
2017-10-15T09:14:25.998Z,202
2017-10-15T09:15:27.401Z,208
2017-10-15T09:16:28.797Z,208
2017-10-15T09:17:30.195Z,213
2017-10-15T09:18:31.595Z,219
2017-10-15T09:19:32.994Z,253
2017-10-15T09:20:34.391Z,984
2017-10-15T09:21:35.794Z,2340
2017-10-15T09:22:37.196Z,2542
2017-10-15T09:23:38.594Z,2188
2017-10-15T09:24:39.994Z,1963
2017-10-15T09:25:41.397Z,1906
2017-10-15T09:26:42.802Z,1890
2017-10-15T09:27:44.208Z,1861
2017-10-15T09:28:45.615Z,1867
2017-10-15T09:29:47.009Z,1878
2017-10-15T09:30:48.413Z,1895
2017-10-15T09:31:49.813Z,1929
2017-10-15T09:32:51.218Z,1895
2017-10-15T09:33:52.617Z,1951
2017-10-15T09:34:54.066Z,1946
2017-10-15T09:35:55.468Z,1980
2017-10-15T09:36:56.875Z,2002
2017-10-15T09:37:58.286Z,1935
2017-10-15T09:38:59.688Z,1890
2017-10-15T09:40:01.091Z,1895
2017-10-15T09:41:02.497Z,1968
2017-10-15T09:42:03.905Z,1918
2017-10-15T09:43:05.311Z,1968
2017-10-15T09:44:06.718Z,2019
2017-10-15T09:45:08.125Z,2019
2017-10-15T09:46:09.534Z,2103
2017-10-15T09:47:10.938Z,2137
2017-10-15T09:48:12.341Z,2148
2017-10-15T09:49:13.747Z,2171
2017-10-15T09:50:15.157Z,2148
2017-10-15T09:51:16.565Z,2165
2017-10-15T09:52:17.975Z,2047
2017-10-15T09:53:19.379Z,2081
2017-10-15T09:54:20.785Z,2103
2017-10-15T09:55:22.189Z,2171
2017-10-15T09:56:23.600Z,2126
2017-10-15T09:57:25.007Z,2154
2017-10-15T09:58:26.414Z,2238
2017-10-15T09:59:27.824Z,2278
2017-10-15T10:00:29.237Z,2295
2017-10-15T10:01:30.644Z,2244
2017-10-15T10:02:32.051Z,2244
2017-10-15T10:03:33.459Z,2216
2017-10-15T10:04:34.888Z,2199
2017-10-15T10:05:36.287Z,2154
2017-10-15T10:06:37.699Z,2193
2017-10-15T10:07:39.107Z,2323
2017-10-15T10:08:40.513Z,2340
2017-10-15T10:09:41.926Z,2283
2017-10-15T10:10:43.333Z,2323
2017-10-15T10:11:44.743Z,2334
2017-10-15T10:12:46.155Z,2317
2017-10-15T10:13:47.564Z,2323
2017-10-15T10:14:48.972Z,2351
2017-10-15T10:15:50.383Z,2385
2017-10-15T10:16:51.791Z,2368
2017-10-15T10:17:53.204Z,2424
2017-10-15T10:18:54.617Z,2452
2017-10-15T10:19:56.036Z,2413
2017-10-15T10:20:57.487Z,2480
2017-10-15T10:21:58.900Z,2435
2017-10-15T10:23:00.310Z,2340
2017-10-15T10:24:01.721Z,2396
2017-10-15T10:25:03.139Z,2486
2017-10-15T10:26:04.550Z,2548
2017-10-15T10:27:05.964Z,2615
2017-10-15T10:28:07.377Z,2542
2017-10-15T10:29:08.787Z,2334
2017-10-15T10:30:10.201Z,2430
2017-10-15T10:31:11.610Z,2475
2017-10-15T10:32:13.018Z,2520
2017-10-15T10:33:14.431Z,2520
2017-10-15T10:34:15.847Z,2553
2017-10-15T10:35:17.256Z,2553
2017-10-15T10:36:18.689Z,2559
2017-10-15T10:37:20.080Z,2581
2017-10-15T10:38:21.494Z,2666
2017-10-15T10:39:22.907Z,2778
2017-10-15T10:40:24.325Z,2739
2017-10-15T10:41:25.732Z,2700
2017-10-15T10:42:27.154Z,2745
2017-10-15T10:43:28.571Z,2671
2017-10-15T10:44:29.974Z,2587
2017-10-15T10:45:31.385Z,2677
2017-10-15T10:46:32.797Z,2649
2017-10-15T10:47:34.215Z,2655
2017-10-15T10:48:35.627Z,2655
2017-10-15T10:49:37.039Z,2548
2017-10-15T10:50:38.449Z,2486
2017-10-15T10:51:39.864Z,2373
2017-10-15T10:52:41.278Z,1625
2017-10-15T10:53:42.688Z,894
2017-10-15T10:54:44.102Z,720
2017-10-15T10:55:45.513Z,540
2017-10-15T10:56:46.921Z,489
2017-10-15T10:57:48.329Z,472
2017-10-15T10:58:49.740Z,466
2017-10-15T10:59:51.146Z,455
2017-10-15T11:00:52.556Z,450
2017-10-15T11:01:53.965Z,450
2017-10-15T11:02:55.379Z,450
2017-10-15T11:03:56.790Z,455
2017-10-15T11:04:58.194Z,466
2017-10-15T11:05:59.603Z,950
2017-10-15T11:07:01.010Z,1687
2017-10-15T11:08:02.421Z,2002
2017-10-15T11:09:03.829Z,2070
2017-10-15T11:10:05.276Z,1676
2017-10-15T11:11:06.686Z,1102
2017-10-15T11:12:08.090Z,613
2017-10-15T11:13:09.495Z,461
2017-10-15T11:14:10.902Z,450
2017-10-15T11:15:12.311Z,444
2017-10-15T11:16:13.716Z,438
2017-10-15T11:17:15.126Z,427
2017-10-15T11:18:16.534Z,421
2017-10-15T11:19:17.941Z,416
2017-10-15T11:20:19.346Z,410
2017-10-15T11:21:20.755Z,405
2017-10-15T11:22:22.163Z,405
2017-10-15T11:23:23.574Z,399
2017-10-15T11:24:24.983Z,399
2017-10-15T11:25:26.389Z,393
2017-10-15T11:26:27.787Z,393
2017-10-15T11:27:29.207Z,393
2017-10-15T11:28:30.613Z,393
2017-10-15T11:29:32.021Z,388
2017-10-15T11:30:33.426Z,388
2017-10-15T11:31:34.835Z,388
2017-10-15T11:32:36.241Z,382
2017-10-15T11:33:37.646Z,382
2017-10-15T11:34:39.049Z,382
2017-10-15T11:35:40.458Z,376
2017-10-15T11:36:41.861Z,376
2017-10-15T11:37:43.268Z,376
2017-10-15T11:38:44.675Z,371
2017-10-15T11:39:46.079Z,371
2017-10-15T11:40:47.483Z,371
2017-10-15T11:41:48.887Z,371
2017-10-15T11:42:50.293Z,365
2017-10-15T11:43:51.699Z,365
2017-10-15T11:44:53.105Z,365
2017-10-15T11:45:54.511Z,365
2017-10-15T11:46:55.922Z,371
2017-10-15T11:47:57.324Z,360
2017-10-15T11:48:58.728Z,360
2017-10-15T11:50:00.131Z,360
2017-10-15T11:51:01.535Z,354
2017-10-15T11:52:02.945Z,354
2017-10-15T11:53:04.347Z,354
2017-10-15T11:54:05.755Z,354
2017-10-15T11:55:07.168Z,360
2017-10-15T11:56:08.586Z,348
2017-10-15T11:57:09.987Z,348
2017-10-15T11:58:11.395Z,348
2017-10-15T11:59:12.804Z,348
2017-10-15T12:00:14.208Z,348
2017-10-15T12:01:15.614Z,343
2017-10-15T12:02:17.023Z,343
2017-10-15T12:03:18.421Z,343
2017-10-15T12:04:19.822Z,343
2017-10-15T12:05:21.228Z,337
2017-10-15T12:06:22.637Z,337
2017-10-15T12:07:24.041Z,337
2017-10-15T12:08:25.449Z,337
2017-10-15T12:09:26.856Z,337
2017-10-15T12:10:28.262Z,343
2017-10-15T12:11:29.670Z,337
2017-10-15T12:12:31.074Z,337
2017-10-15T12:13:32.481Z,331
2017-10-15T12:14:33.890Z,331
2017-10-15T12:15:35.295Z,331
2017-10-15T12:16:36.697Z,326
2017-10-15T12:17:38.102Z,326
2017-10-15T12:18:39.511Z,331
2017-10-15T12:19:40.916Z,326
2017-10-15T12:20:42.323Z,326
2017-10-15T12:21:43.727Z,326
2017-10-15T12:22:45.132Z,326
2017-10-15T12:23:46.533Z,326
2017-10-15T12:24:47.939Z,326
2017-10-15T12:25:49.340Z,320
2017-10-15T12:26:50.748Z,320
2017-10-15T12:27:52.153Z,320
2017-10-15T12:28:53.563Z,320
2017-10-15T12:29:54.967Z,320
2017-10-15T12:30:56.370Z,320
2017-10-15T12:31:57.774Z,315
2017-10-15T12:32:59.177Z,315
2017-10-15T12:34:00.581Z,315
2017-10-15T12:35:01.985Z,315
2017-10-15T12:36:03.390Z,315
2017-10-15T12:37:04.796Z,320
2017-10-15T12:38:06.201Z,315
2017-10-15T12:39:07.606Z,315
2017-10-15T12:40:09.008Z,309
2017-10-15T12:41:10.414Z,309
2017-10-15T12:42:11.824Z,309
2017-10-15T12:43:13.224Z,309
2017-10-15T12:44:14.625Z,303
2017-10-15T12:45:16.063Z,303
2017-10-15T12:46:17.469Z,298
2017-10-15T12:47:18.872Z,298
2017-10-15T12:48:20.284Z,298
2017-10-15T12:49:21.689Z,292
2017-10-15T12:50:23.097Z,292
2017-10-15T12:51:24.506Z,292
2017-10-15T12:52:25.906Z,292
2017-10-15T12:53:27.311Z,286
2017-10-15T12:54:28.710Z,286
2017-10-15T12:55:30.115Z,286
2017-10-15T12:56:31.518Z,286
2017-10-15T12:57:32.927Z,286
2017-10-15T12:58:34.329Z,281
2017-10-15T12:59:35.731Z,281
2017-10-15T13:00:37.134Z,281
2017-10-15T13:01:38.536Z,281
2017-10-15T13:02:39.935Z,275
2017-10-15T13:03:41.341Z,275
2017-10-15T13:04:42.747Z,275
2017-10-15T13:05:44.151Z,275
2017-10-15T13:06:45.553Z,275
2017-10-15T13:07:46.955Z,270
2017-10-15T13:08:48.357Z,270
2017-10-15T13:09:49.763Z,270
2017-10-15T13:10:51.166Z,270
2017-10-15T13:11:52.573Z,270
2017-10-15T13:12:53.975Z,270
2017-10-15T13:13:55.401Z,270
2017-10-15T13:14:56.800Z,270
2017-10-15T13:15:58.202Z,270
2017-10-15T13:16:59.607Z,270
2017-10-15T13:18:01.016Z,270
2017-10-15T13:19:02.422Z,270
2017-10-15T13:20:03.830Z,270
2017-10-15T13:21:05.233Z,270
2017-10-15T13:22:06.636Z,264
2017-10-15T13:23:08.039Z,264
2017-10-15T13:24:09.445Z,264
2017-10-15T13:25:10.851Z,258
2017-10-15T13:26:12.260Z,258
2017-10-15T13:27:13.671Z,258
2017-10-15T13:28:15.079Z,258
2017-10-15T13:29:16.480Z,253
2017-10-15T13:30:17.883Z,258
2017-10-15T13:31:19.420Z,253
2017-10-15T13:32:20.821Z,253
2017-10-15T13:33:22.225Z,253
2017-10-15T13:34:23.630Z,253
2017-10-15T13:35:25.034Z,253
2017-10-15T13:36:26.436Z,253
2017-10-15T13:37:27.840Z,247
2017-10-15T13:38:29.243Z,247
2017-10-15T13:39:30.649Z,247
2017-10-15T13:40:32.055Z,247
2017-10-15T13:41:33.461Z,241
2017-10-15T13:42:34.860Z,241
2017-10-15T13:43:36.265Z,241
2017-10-15T13:44:37.666Z,241
2017-10-15T13:45:39.075Z,241
2017-10-15T13:46:40.474Z,236
2017-10-15T13:47:41.884Z,236
2017-10-15T13:48:43.284Z,236
2017-10-15T13:49:44.688Z,236
2017-10-15T13:50:46.094Z,236
2017-10-15T13:51:47.497Z,230
2017-10-15T13:52:48.900Z,230
2017-10-15T13:53:50.302Z,230
2017-10-15T13:54:52.593Z,230
2017-10-15T13:55:54.002Z,225
2017-10-15T13:56:55.401Z,225
2017-10-15T13:57:56.806Z,225
2017-10-15T13:58:58.208Z,230
2017-10-15T13:59:59.613Z,219
2017-10-15T14:01:01.015Z,219
2017-10-15T14:02:02.421Z,225
2017-10-15T14:03:03.828Z,219
2017-10-15T14:04:05.227Z,213
2017-10-15T14:05:06.633Z,213
2017-10-15T14:06:08.041Z,219
2017-10-15T14:07:09.445Z,208
2017-10-15T14:08:10.847Z,213
2017-10-15T14:09:12.254Z,213
2017-10-15T14:10:13.657Z,213
2017-10-15T14:11:15.060Z,208
2017-10-15T14:12:16.468Z,202
2017-10-15T14:13:17.873Z,208
2017-10-15T14:14:19.270Z,208
2017-10-15T14:15:20.677Z,202
2017-10-15T14:16:22.927Z,202
2017-10-15T14:17:24.372Z,196
2017-10-15T14:18:25.780Z,196
2017-10-15T14:19:27.182Z,196
2017-10-15T14:20:28.587Z,191
2017-10-15T14:21:29.988Z,191
2017-10-15T14:22:31.398Z,185
2017-10-15T14:23:32.804Z,185
2017-10-15T14:24:34.213Z,185
2017-10-15T14:25:35.617Z,180
2017-10-15T14:26:37.024Z,180
2017-10-15T14:27:38.427Z,180
2017-10-15T14:28:39.831Z,174
2017-10-15T14:29:41.233Z,174
2017-10-15T14:30:42.635Z,168
2017-10-15T14:31:44.044Z,168
2017-10-15T14:32:45.448Z,168